sensor_id;sensor_type;location;lat;lon;timestamp;P1;durP1;ratioP1;P2;durP2;ratioP2
59486;SDS011;45298;54.918;73.504;2022-11-25T00:01:38;18.88;;;5.68;;
59486;SDS011;45298;54.918;73.504;2022-11-25T00:04:07;13.98;;;5.40;;
59486;SDS011;45298;54.918;73.504;2022-11-25T00:06:36;12.05;;;4.38;;
59486;SDS011;45298;54.918;73.504;2022-11-25T00:09:08;11.02;;;4.53;;
59486;SDS011;45298;54.918;73.504;2022-11-25T00:11:39;4.68;;;2.22;;
59486;SDS011;45298;54.918;73.504;2022-11-25T00:14:11;7.97;;;2.65;;
59486;SDS011;45298;54.918;73.504;2022-11-25T00:16:41;13.82;;;3.83;;
59486;SDS011;45298;54.918;73.504;2022-11-25T00:19:15;11.57;;;4.07;;
59486;SDS011;45298;54.918;73.504;2022-11-25T00:21:44;8.93;;;2.90;;
59486;SDS011;45298;54.918;73.504;2022-11-25T00:24:13;21.25;;;5.82;;
59486;SDS011;45298;54.918;73.504;2022-11-25T00:26:44;12.38;;;5.03;;
59486;SDS011;45298;54.918;73.504;2022-11-25T00:29:13;14.38;;;4.47;;
59486;SDS011;45298;54.918;73.504;2022-11-25T00:31:42;11.05;;;4.13;;
59486;SDS011;45298;54.918;73.504;2022-11-25T00:34:14;15.00;;;5.70;;
59486;SDS011;45298;54.918;73.504;2022-11-25T00:36:43;11.68;;;3.90;;
59486;SDS011;45298;54.918;73.504;2022-11-25T00:39:13;15.98;;;4.80;;
59486;SDS011;45298;54.918;73.504;2022-11-25T00:41:45;24.48;;;5.63;;
59486;SDS011;45298;54.918;73.504;2022-11-25T00:44:33;13.65;;;4.47;;
59486;SDS011;45298;54.918;73.504;2022-11-25T00:47:12;13.70;;;4.93;;
59486;SDS011;45298;54.918;73.504;2022-11-25T00:52:13;9.32;;;3.13;;
59486;SDS011;45298;54.918;73.504;2022-11-25T00:54:47;13.73;;;3.63;;
59486;SDS011;45298;54.918;73.504;2022-11-25T00:57:18;16.70;;;4.22;;
59486;SDS011;45298;54.918;73.504;2022-11-25T00:59:48;18.67;;;4.72;;
59486;SDS011;45298;54.918;73.504;2022-11-25T01:02:19;14.52;;;3.65;;
59486;SDS011;45298;54.918;73.504;2022-11-25T01:11:51;12.77;;;4.50;;
59486;SDS011;45298;54.918;73.504;2022-11-25T01:14:21;12.05;;;3.95;;
59486;SDS011;45298;54.918;73.504;2022-11-25T01:16:51;15.43;;;5.18;;
59486;SDS011;45298;54.918;73.504;2022-11-25T01:19:20;12.98;;;3.22;;
59486;SDS011;45298;54.918;73.504;2022-11-25T01:21:52;22.73;;;5.60;;
59486;SDS011;45298;54.918;73.504;2022-11-25T01:24:21;22.83;;;5.72;;
59486;SDS011;45298;54.918;73.504;2022-11-25T01:26:53;11.90;;;3.53;;
59486;SDS011;45298;54.918;73.504;2022-11-25T01:29:23;20.77;;;4.38;;
59486;SDS011;45298;54.918;73.504;2022-11-25T01:31:55;14.65;;;4.18;;
59486;SDS011;45298;54.918;73.504;2022-11-25T01:34:26;13.52;;;3.63;;
59486;SDS011;45298;54.918;73.504;2022-11-25T01:36:59;43.92;;;6.55;;
59486;SDS011;45298;54.918;73.504;2022-11-25T01:39:31;20.30;;;5.18;;
59486;SDS011;45298;54.918;73.504;2022-11-25T01:42:02;24.73;;;5.55;;
59486;SDS011;45298;54.918;73.504;2022-11-25T01:44:31;19.75;;;6.30;;
59486;SDS011;45298;54.918;73.504;2022-11-25T01:47:14;15.00;;;5.45;;
59486;SDS011;45298;54.918;73.504;2022-11-25T01:52:28;20.00;;;8.35;;
59486;SDS011;45298;54.918;73.504;2022-11-25T01:55:01;17.50;;;7.43;;
59486;SDS011;45298;54.918;73.504;2022-11-25T01:57:43;33.42;;;14.13;;
59486;SDS011;45298;54.918;73.504;2022-11-25T02:00:16;48.33;;;17.83;;
59486;SDS011;45298;54.918;73.504;2022-11-25T02:02:46;62.50;;;20.58;;
59486;SDS011;45298;54.918;73.504;2022-11-25T02:08:09;11.00;;;5.43;;
59486;SDS011;45298;54.918;73.504;2022-11-25T02:10:40;23.92;;;8.45;;
59486;SDS011;45298;54.918;73.504;2022-11-25T02:13:12;23.45;;;5.88;;
59486;SDS011;45298;54.918;73.504;2022-11-25T02:15:41;35.80;;;8.25;;
59486;SDS011;45298;54.918;73.504;2022-11-25T02:18:10;20.67;;;5.78;;
59486;SDS011;45298;54.918;73.504;2022-11-25T02:20:39;23.45;;;8.13;;
59486;SDS011;45298;54.918;73.504;2022-11-25T02:25:58;25.90;;;6.25;;
59486;SDS011;45298;54.918;73.504;2022-11-25T02:28:28;14.40;;;4.35;;
59486;SDS011;45298;54.918;73.504;2022-11-25T02:33:32;14.07;;;3.83;;
59486;SDS011;45298;54.918;73.504;2022-11-25T02:36:04;15.75;;;3.88;;
59486;SDS011;45298;54.918;73.504;2022-11-25T02:38:49;19.67;;;4.22;;
59486;SDS011;45298;54.918;73.504;2022-11-25T02:41:43;8.57;;;2.72;;
59486;SDS011;45298;54.918;73.504;2022-11-25T02:44:17;10.75;;;4.55;;
59486;SDS011;45298;54.918;73.504;2022-11-25T02:46:47;24.05;;;5.90;;
59486;SDS011;45298;54.918;73.504;2022-11-25T02:49:18;9.88;;;3.10;;
59486;SDS011;45298;54.918;73.504;2022-11-25T02:51:46;24.75;;;5.25;;
59486;SDS011;45298;54.918;73.504;2022-11-25T02:54:16;23.77;;;4.70;;
59486;SDS011;45298;54.918;73.504;2022-11-25T02:56:48;22.77;;;3.80;;
59486;SDS011;45298;54.918;73.504;2022-11-25T02:59:17;6.65;;;2.47;;
59486;SDS011;45298;54.918;73.504;2022-11-25T03:01:49;16.65;;;4.88;;
59486;SDS011;45298;54.918;73.504;2022-11-25T03:04:18;23.40;;;3.92;;
59486;SDS011;45298;54.918;73.504;2022-11-25T03:06:47;20.10;;;6.90;;
59486;SDS011;45298;54.918;73.504;2022-11-25T03:09:16;9.02;;;4.20;;
59486;SDS011;45298;54.918;73.504;2022-11-25T03:11:45;21.05;;;7.07;;
59486;SDS011;45298;54.918;73.504;2022-11-25T03:14:32;27.48;;;7.72;;
59486;SDS011;45298;54.918;73.504;2022-11-25T03:17:02;22.40;;;5.35;;
59486;SDS011;45298;54.918;73.504;2022-11-25T03:19:30;17.85;;;5.97;;
59486;SDS011;45298;54.918;73.504;2022-11-25T03:21:59;10.40;;;3.42;;
59486;SDS011;45298;54.918;73.504;2022-11-25T03:24:28;23.80;;;5.72;;
59486;SDS011;45298;54.918;73.504;2022-11-25T03:26:56;27.98;;;7.45;;
59486;SDS011;45298;54.918;73.504;2022-11-25T03:29:25;56.38;;;15.70;;
59486;SDS011;45298;54.918;73.504;2022-11-25T03:31:56;16.63;;;6.78;;
59486;SDS011;45298;54.918;73.504;2022-11-25T03:34:25;22.13;;;7.32;;
59486;SDS011;45298;54.918;73.504;2022-11-25T03:36:54;20.63;;;6.57;;
59486;SDS011;45298;54.918;73.504;2022-11-25T03:39:26;22.20;;;6.10;;
59486;SDS011;45298;54.918;73.504;2022-11-25T03:41:57;14.90;;;4.20;;
59486;SDS011;45298;54.918;73.504;2022-11-25T03:44:26;25.27;;;6.57;;
59486;SDS011;45298;54.918;73.504;2022-11-25T03:46:54;9.68;;;3.95;;
59486;SDS011;45298;54.918;73.504;2022-11-25T03:49:24;9.35;;;4.32;;
59486;SDS011;45298;54.918;73.504;2022-11-25T03:51:53;14.27;;;5.50;;
59486;SDS011;45298;54.918;73.504;2022-11-25T03:54:22;12.35;;;4.88;;
59486;SDS011;45298;54.918;73.504;2022-11-25T03:57:11;20.73;;;6.20;;
59486;SDS011;45298;54.918;73.504;2022-11-25T03:59:40;9.82;;;4.53;;
59486;SDS011;45298;54.918;73.504;2022-11-25T04:02:10;20.90;;;6.45;;
59486;SDS011;45298;54.918;73.504;2022-11-25T04:04:39;16.38;;;5.78;;
59486;SDS011;45298;54.918;73.504;2022-11-25T04:07:08;30.30;;;10.35;;
59486;SDS011;45298;54.918;73.504;2022-11-25T04:09:37;24.42;;;8.68;;
59486;SDS011;45298;54.918;73.504;2022-11-25T04:12:06;28.80;;;11.60;;
59486;SDS011;45298;54.918;73.504;2022-11-25T04:15:02;50.22;;;15.52;;
59486;SDS011;45298;54.918;73.504;2022-11-25T04:17:31;30.90;;;11.38;;
59486;SDS011;45298;54.918;73.504;2022-11-25T04:20:00;7.00;;;3.58;;
59486;SDS011;45298;54.918;73.504;2022-11-25T04:22:29;16.25;;;5.70;;
59486;SDS011;45298;54.918;73.504;2022-11-25T04:25:00;13.32;;;4.80;;
59486;SDS011;45298;54.918;73.504;2022-11-25T04:27:28;12.93;;;4.43;;
59486;SDS011;45298;54.918;73.504;2022-11-25T04:29:58;10.27;;;3.00;;
59486;SDS011;45298;54.918;73.504;2022-11-25T04:32:27;12.00;;;4.53;;
59486;SDS011;45298;54.918;73.504;2022-11-25T04:34:57;6.75;;;2.90;;
59486;SDS011;45298;54.918;73.504;2022-11-25T04:37:26;8.50;;;3.33;;
59486;SDS011;45298;54.918;73.504;2022-11-25T04:39:55;8.57;;;2.83;;
59486;SDS011;45298;54.918;73.504;2022-11-25T04:42:24;9.10;;;3.35;;
59486;SDS011;45298;54.918;73.504;2022-11-25T04:45:09;12.45;;;4.10;;
59486;SDS011;45298;54.918;73.504;2022-11-25T04:47:52;23.27;;;9.90;;
59486;SDS011;45298;54.918;73.504;2022-11-25T04:50:22;18.02;;;7.10;;
59486;SDS011;45298;54.918;73.504;2022-11-25T04:52:58;9.45;;;3.45;;
59486;SDS011;45298;54.918;73.504;2022-11-25T04:55:28;11.25;;;3.45;;
59486;SDS011;45298;54.918;73.504;2022-11-25T04:57:59;14.23;;;4.18;;
59486;SDS011;45298;54.918;73.504;2022-11-25T05:00:30;12.10;;;4.20;;
59486;SDS011;45298;54.918;73.504;2022-11-25T05:02:59;14.43;;;4.78;;
59486;SDS011;45298;54.918;73.504;2022-11-25T05:05:30;13.25;;;3.95;;
59486;SDS011;45298;54.918;73.504;2022-11-25T05:07:58;9.57;;;3.63;;
59486;SDS011;45298;54.918;73.504;2022-11-25T05:10:27;16.00;;;4.60;;
59486;SDS011;45298;54.918;73.504;2022-11-25T05:12:56;11.25;;;4.18;;
59486;SDS011;45298;54.918;73.504;2022-11-25T05:15:25;16.45;;;4.97;;
59486;SDS011;45298;54.918;73.504;2022-11-25T05:17:54;20.13;;;5.97;;
59486;SDS011;45298;54.918;73.504;2022-11-25T05:20:39;9.32;;;3.85;;
59486;SDS011;45298;54.918;73.504;2022-11-25T05:23:07;12.98;;;5.38;;
59486;SDS011;45298;54.918;73.504;2022-11-25T05:25:36;10.57;;;3.75;;
59486;SDS011;45298;54.918;73.504;2022-11-25T05:28:26;9.40;;;2.95;;
59486;SDS011;45298;54.918;73.504;2022-11-25T05:30:56;3.35;;;1.65;;
59486;SDS011;45298;54.918;73.504;2022-11-25T05:33:25;13.35;;;4.47;;
59486;SDS011;45298;54.918;73.504;2022-11-25T05:35:58;9.82;;;4.13;;
59486;SDS011;45298;54.918;73.504;2022-11-25T05:38:55;12.15;;;5.20;;
59486;SDS011;45298;54.918;73.504;2022-11-25T05:41:41;9.15;;;3.13;;
59486;SDS011;45298;54.918;73.504;2022-11-25T05:44:10;15.77;;;3.83;;
59486;SDS011;45298;54.918;73.504;2022-11-25T05:46:44;10.80;;;3.55;;
59486;SDS011;45298;54.918;73.504;2022-11-25T05:49:14;14.93;;;3.25;;
59486;SDS011;45298;54.918;73.504;2022-11-25T05:51:46;16.17;;;4.03;;
59486;SDS011;45298;54.918;73.504;2022-11-25T05:54:18;23.65;;;5.97;;
59486;SDS011;45298;54.918;73.504;2022-11-25T05:56:46;23.60;;;5.55;;
59486;SDS011;45298;54.918;73.504;2022-11-25T05:59:31;7.38;;;3.40;;
59486;SDS011;45298;54.918;73.504;2022-11-25T06:02:10;23.23;;;4.28;;
59486;SDS011;45298;54.918;73.504;2022-11-25T06:04:39;13.15;;;4.30;;
59486;SDS011;45298;54.918;73.504;2022-11-25T06:07:08;5.90;;;2.88;;
59486;SDS011;45298;54.918;73.504;2022-11-25T06:09:38;16.17;;;5.43;;
59486;SDS011;45298;54.918;73.504;2022-11-25T06:12:07;13.68;;;3.95;;
59486;SDS011;45298;54.918;73.504;2022-11-25T06:14:43;22.05;;;5.97;;
59486;SDS011;45298;54.918;73.504;2022-11-25T06:17:12;13.52;;;4.22;;
59486;SDS011;45298;54.918;73.504;2022-11-25T06:19:47;8.02;;;3.17;;
59486;SDS011;45298;54.918;73.504;2022-11-25T06:22:16;17.20;;;3.92;;
59486;SDS011;45298;54.918;73.504;2022-11-25T06:24:45;12.23;;;3.78;;
59486;SDS011;45298;54.918;73.504;2022-11-25T06:27:25;10.25;;;3.30;;
59486;SDS011;45298;54.918;73.504;2022-11-25T06:30:14;7.63;;;3.20;;
59486;SDS011;45298;54.918;73.504;2022-11-25T06:32:50;13.85;;;3.20;;
59486;SDS011;45298;54.918;73.504;2022-11-25T06:35:22;10.32;;;3.70;;
59486;SDS011;45298;54.918;73.504;2022-11-25T06:37:56;14.40;;;3.80;;
59486;SDS011;45298;54.918;73.504;2022-11-25T06:40:25;10.13;;;4.35;;
59486;SDS011;45298;54.918;73.504;2022-11-25T06:42:54;20.13;;;6.57;;
59486;SDS011;45298;54.918;73.504;2022-11-25T06:45:23;7.72;;;2.97;;
59486;SDS011;45298;54.918;73.504;2022-11-25T06:47:52;8.75;;;3.33;;
59486;SDS011;45298;54.918;73.504;2022-11-25T06:50:21;5.30;;;2.22;;
59486;SDS011;45298;54.918;73.504;2022-11-25T06:52:49;10.50;;;3.40;;
59486;SDS011;45298;54.918;73.504;2022-11-25T06:55:18;11.95;;;3.75;;
59486;SDS011;45298;54.918;73.504;2022-11-25T06:57:47;11.43;;;4.13;;
59486;SDS011;45298;54.918;73.504;2022-11-25T07:00:17;8.18;;;2.38;;
59486;SDS011;45298;54.918;73.504;2022-11-25T07:02:46;9.52;;;3.15;;
59486;SDS011;45298;54.918;73.504;2022-11-25T07:05:15;8.70;;;3.47;;
59486;SDS011;45298;54.918;73.504;2022-11-25T07:07:44;16.15;;;4.63;;
59486;SDS011;45298;54.918;73.504;2022-11-25T07:10:13;10.57;;;3.70;;
59486;SDS011;45298;54.918;73.504;2022-11-25T07:12:41;8.18;;;2.38;;
59486;SDS011;45298;54.918;73.504;2022-11-25T07:15:10;9.48;;;3.28;;
59486;SDS011;45298;54.918;73.504;2022-11-25T07:17:39;11.30;;;3.75;;
59486;SDS011;45298;54.918;73.504;2022-11-25T07:20:08;15.70;;;4.43;;
59486;SDS011;45298;54.918;73.504;2022-11-25T07:22:38;15.93;;;5.35;;
59486;SDS011;45298;54.918;73.504;2022-11-25T07:25:08;9.82;;;3.13;;
59486;SDS011;45298;54.918;73.504;2022-11-25T07:27:37;12.52;;;3.70;;
59486;SDS011;45298;54.918;73.504;2022-11-25T07:30:06;11.13;;;3.58;;
59486;SDS011;45298;54.918;73.504;2022-11-25T07:32:58;7.38;;;2.78;;
59486;SDS011;45298;54.918;73.504;2022-11-25T07:35:27;7.45;;;2.80;;
59486;SDS011;45298;54.918;73.504;2022-11-25T07:37:56;8.02;;;3.28;;
59486;SDS011;45298;54.918;73.504;2022-11-25T07:40:28;7.95;;;2.65;;
59486;SDS011;45298;54.918;73.504;2022-11-25T07:42:57;8.98;;;2.55;;
59486;SDS011;45298;54.918;73.504;2022-11-25T07:45:27;6.22;;;2.63;;
59486;SDS011;45298;54.918;73.504;2022-11-25T07:48:07;10.50;;;2.65;;
59486;SDS011;45298;54.918;73.504;2022-11-25T07:50:36;10.52;;;2.95;;
59486;SDS011;45298;54.918;73.504;2022-11-25T07:53:05;8.93;;;3.03;;
59486;SDS011;45298;54.918;73.504;2022-11-25T07:55:34;7.15;;;2.17;;
59486;SDS011;45298;54.918;73.504;2022-11-25T07:58:04;5.03;;;2.20;;
59486;SDS011;45298;54.918;73.504;2022-11-25T08:00:33;7.15;;;1.98;;
59486;SDS011;45298;54.918;73.504;2022-11-25T08:03:02;10.73;;;2.83;;
59486;SDS011;45298;54.918;73.504;2022-11-25T08:05:32;3.88;;;2.28;;
59486;SDS011;45298;54.918;73.504;2022-11-25T08:08:01;7.80;;;2.72;;
59486;SDS011;45298;54.918;73.504;2022-11-25T08:10:30;9.00;;;3.30;;
59486;SDS011;45298;54.918;73.504;2022-11-25T08:12:59;9.98;;;2.58;;
59486;SDS011;45298;54.918;73.504;2022-11-25T08:15:31;7.07;;;2.65;;
59486;SDS011;45298;54.918;73.504;2022-11-25T08:18:01;3.70;;;1.95;;
59486;SDS011;45298;54.918;73.504;2022-11-25T08:20:29;8.18;;;2.15;;
59486;SDS011;45298;54.918;73.504;2022-11-25T08:22:58;7.88;;;3.08;;
59486;SDS011;45298;54.918;73.504;2022-11-25T08:25:27;7.55;;;2.95;;
59486;SDS011;45298;54.918;73.504;2022-11-25T08:27:58;13.60;;;3.22;;
59486;SDS011;45298;54.918;73.504;2022-11-25T08:30:27;7.10;;;2.92;;
59486;SDS011;45298;54.918;73.504;2022-11-25T08:32:56;11.70;;;4.05;;
59486;SDS011;45298;54.918;73.504;2022-11-25T08:35:25;13.73;;;4.10;;
59486;SDS011;45298;54.918;73.504;2022-11-25T08:37:54;8.80;;;3.38;;
59486;SDS011;45298;54.918;73.504;2022-11-25T08:40:23;4.78;;;2.28;;
59486;SDS011;45298;54.918;73.504;2022-11-25T08:42:51;7.80;;;2.55;;
59486;SDS011;45298;54.918;73.504;2022-11-25T08:45:20;11.50;;;3.13;;
59486;SDS011;45298;54.918;73.504;2022-11-25T08:47:49;8.20;;;2.65;;
59486;SDS011;45298;54.918;73.504;2022-11-25T08:50:18;13.27;;;4.22;;
59486;SDS011;45298;54.918;73.504;2022-11-25T08:52:49;7.13;;;3.05;;
59486;SDS011;45298;54.918;73.504;2022-11-25T08:55:18;8.40;;;3.25;;
59486;SDS011;45298;54.918;73.504;2022-11-25T08:57:48;15.18;;;4.32;;
59486;SDS011;45298;54.918;73.504;2022-11-25T09:00:17;11.82;;;4.35;;
59486;SDS011;45298;54.918;73.504;2022-11-25T09:02:48;12.20;;;3.28;;
59486;SDS011;45298;54.918;73.504;2022-11-25T09:05:22;15.15;;;4.40;;
59486;SDS011;45298;54.918;73.504;2022-11-25T09:07:51;6.10;;;2.90;;
59486;SDS011;45298;54.918;73.504;2022-11-25T09:10:19;10.02;;;3.50;;
59486;SDS011;45298;54.918;73.504;2022-11-25T09:12:48;8.55;;;3.40;;
59486;SDS011;45298;54.918;73.504;2022-11-25T09:15:21;9.85;;;3.35;;
59486;SDS011;45298;54.918;73.504;2022-11-25T09:18:02;8.85;;;3.75;;
59486;SDS011;45298;54.918;73.504;2022-11-25T09:20:36;11.57;;;3.88;;
59486;SDS011;45298;54.918;73.504;2022-11-25T09:23:07;10.10;;;3.92;;
59486;SDS011;45298;54.918;73.504;2022-11-25T09:25:36;9.75;;;4.03;;
59486;SDS011;45298;54.918;73.504;2022-11-25T09:28:05;8.70;;;2.97;;
59486;SDS011;45298;54.918;73.504;2022-11-25T09:30:35;11.30;;;4.28;;
59486;SDS011;45298;54.918;73.504;2022-11-25T09:33:04;12.27;;;4.15;;
59486;SDS011;45298;54.918;73.504;2022-11-25T09:35:35;5.93;;;2.63;;
59486;SDS011;45298;54.918;73.504;2022-11-25T09:38:04;11.50;;;3.15;;
59486;SDS011;45298;54.918;73.504;2022-11-25T09:55:16;10.95;;;3.85;;
59486;SDS011;45298;54.918;73.504;2022-11-25T09:58:04;7.20;;;2.67;;
59486;SDS011;45298;54.918;73.504;2022-11-25T10:00:52;8.90;;;2.95;;
59486;SDS011;45298;54.918;73.504;2022-11-25T10:03:42;10.15;;;3.03;;
59486;SDS011;45298;54.918;73.504;2022-11-25T10:09:10;10.15;;;3.70;;
59486;SDS011;45298;54.918;73.504;2022-11-25T10:16:49;12.52;;;3.63;;
59486;SDS011;45298;54.918;73.504;2022-11-25T10:24:56;12.45;;;4.93;;
59486;SDS011;45298;54.918;73.504;2022-11-25T10:27:35;16.23;;;5.28;;
59486;SDS011;45298;54.918;73.504;2022-11-25T10:32:57;16.00;;;4.63;;
59486;SDS011;45298;54.918;73.504;2022-11-25T10:35:33;11.45;;;3.50;;
59486;SDS011;45298;54.918;73.504;2022-11-25T10:38:11;13.73;;;4.05;;
59486;SDS011;45298;54.918;73.504;2022-11-25T10:41:02;7.88;;;3.22;;
59486;SDS011;45298;54.918;73.504;2022-11-25T10:43:32;13.70;;;4.20;;
59486;SDS011;45298;54.918;73.504;2022-11-25T10:46:15;16.75;;;5.68;;
59486;SDS011;45298;54.918;73.504;2022-11-25T10:49:28;14.65;;;4.95;;
59486;SDS011;45298;54.918;73.504;2022-11-25T10:52:26;15.68;;;5.32;;
59486;SDS011;45298;54.918;73.504;2022-11-25T10:55:08;15.70;;;4.95;;
59486;SDS011;45298;54.918;73.504;2022-11-25T10:57:41;10.98;;;4.30;;
59486;SDS011;45298;54.918;73.504;2022-11-25T11:03:15;11.57;;;4.50;;
59486;SDS011;45298;54.918;73.504;2022-11-25T11:05:51;11.05;;;4.38;;
59486;SDS011;45298;54.918;73.504;2022-11-25T11:08:25;17.30;;;5.25;;
59486;SDS011;45298;54.918;73.504;2022-11-25T11:13:49;15.35;;;5.70;;
59486;SDS011;45298;54.918;73.504;2022-11-25T11:16:52;11.45;;;4.30;;
59486;SDS011;45298;54.918;73.504;2022-11-25T11:19:37;10.15;;;4.60;;
59486;SDS011;45298;54.918;73.504;2022-11-25T11:22:14;11.38;;;4.20;;
59486;SDS011;45298;54.918;73.504;2022-11-25T11:24:46;13.07;;;4.18;;
59486;SDS011;45298;54.918;73.504;2022-11-25T11:27:41;14.18;;;5.07;;
59486;SDS011;45298;54.918;73.504;2022-11-25T11:30:14;13.20;;;5.28;;
59486;SDS011;45298;54.918;73.504;2022-11-25T11:42:13;10.75;;;4.18;;
59486;SDS011;45298;54.918;73.504;2022-11-25T11:51:01;19.67;;;6.57;;
59486;SDS011;45298;54.918;73.504;2022-11-25T12:05:33;27.38;;;8.55;;
59486;SDS011;45298;54.918;73.504;2022-11-25T12:08:27;17.05;;;5.65;;
59486;SDS011;45298;54.918;73.504;2022-11-25T12:11:39;11.43;;;4.70;;
59486;SDS011;45298;54.918;73.504;2022-11-25T12:17:22;22.15;;;8.35;;
59486;SDS011;45298;54.918;73.504;2022-11-25T12:23:22;8.32;;;3.53;;
59486;SDS011;45298;54.918;73.504;2022-11-25T12:26:19;10.13;;;4.15;;
59486;SDS011;45298;54.918;73.504;2022-11-25T12:29:00;11.02;;;3.65;;
59486;SDS011;45298;54.918;73.504;2022-11-25T12:31:38;9.63;;;3.47;;
59486;SDS011;45298;54.918;73.504;2022-11-25T12:34:26;7.28;;;3.35;;
59486;SDS011;45298;54.918;73.504;2022-11-25T12:37:06;10.02;;;4.32;;
59486;SDS011;45298;54.918;73.504;2022-11-25T12:39:49;8.60;;;2.70;;
59486;SDS011;45298;54.918;73.504;2022-11-25T12:42:27;11.32;;;4.55;;
59486;SDS011;45298;54.918;73.504;2022-11-25T12:45:09;10.93;;;4.97;;
59486;SDS011;45298;54.918;73.504;2022-11-25T12:47:39;9.95;;;4.10;;
59486;SDS011;45298;54.918;73.504;2022-11-25T12:50:19;40.75;;;7.53;;
59486;SDS011;45298;54.918;73.504;2022-11-25T12:53:06;16.15;;;5.80;;
59486;SDS011;45298;54.918;73.504;2022-11-25T12:55:43;21.90;;;7.78;;
59486;SDS011;45298;54.918;73.504;2022-11-25T13:10:55;7.43;;;3.70;;
59486;SDS011;45298;54.918;73.504;2022-11-25T13:13:31;23.55;;;4.68;;
59486;SDS011;45298;54.918;73.504;2022-11-25T13:16:02;19.38;;;5.93;;
59486;SDS011;45298;54.918;73.504;2022-11-25T13:18:37;13.75;;;4.60;;
59486;SDS011;45298;54.918;73.504;2022-11-25T13:21:10;15.63;;;5.70;;
59486;SDS011;45298;54.918;73.504;2022-11-25T13:23:48;18.63;;;5.13;;
59486;SDS011;45298;54.918;73.504;2022-11-25T13:28:59;9.27;;;3.70;;
59486;SDS011;45298;54.918;73.504;2022-11-25T13:31:35;8.82;;;3.05;;
59486;SDS011;45298;54.918;73.504;2022-11-25T13:34:27;18.00;;;5.22;;
59486;SDS011;45298;54.918;73.504;2022-11-25T13:43:19;8.57;;;4.07;;
59486;SDS011;45298;54.918;73.504;2022-11-25T13:45:49;6.72;;;3.83;;
59486;SDS011;45298;54.918;73.504;2022-11-25T13:48:21;14.65;;;4.88;;
59486;SDS011;45298;54.918;73.504;2022-11-25T13:53:55;16.58;;;4.43;;
59486;SDS011;45298;54.918;73.504;2022-11-25T13:56:31;10.10;;;3.95;;
59486;SDS011;45298;54.918;73.504;2022-11-25T14:01:56;23.27;;;7.70;;
59486;SDS011;45298;54.918;73.504;2022-11-25T14:13:10;26.48;;;10.85;;
59486;SDS011;45298;54.918;73.504;2022-11-25T14:21:59;18.27;;;6.57;;
59486;SDS011;45298;54.918;73.504;2022-11-25T14:24:41;43.67;;;18.15;;
59486;SDS011;45298;54.918;73.504;2022-11-25T14:27:14;55.55;;;21.27;;
59486;SDS011;45298;54.918;73.504;2022-11-25T14:30:08;75.30;;;24.20;;
59486;SDS011;45298;54.918;73.504;2022-11-25T14:32:50;22.10;;;7.78;;
59486;SDS011;45298;54.918;73.504;2022-11-25T14:35:29;26.98;;;9.75;;
59486;SDS011;45298;54.918;73.504;2022-11-25T14:38:16;23.17;;;8.88;;
59486;SDS011;45298;54.918;73.504;2022-11-25T14:43:35;12.32;;;4.80;;
59486;SDS011;45298;54.918;73.504;2022-11-25T14:46:14;15.05;;;6.50;;
59486;SDS011;45298;54.918;73.504;2022-11-25T14:48:54;20.75;;;6.80;;
59486;SDS011;45298;54.918;73.504;2022-11-25T14:51:25;32.85;;;11.02;;
59486;SDS011;45298;54.918;73.504;2022-11-25T14:54:02;35.10;;;10.80;;
59486;SDS011;45298;54.918;73.504;2022-11-25T14:56:35;20.05;;;7.70;;
59486;SDS011;45298;54.918;73.504;2022-11-25T14:59:06;16.50;;;5.70;;
59486;SDS011;45298;54.918;73.504;2022-11-25T15:01:38;28.17;;;10.98;;
59486;SDS011;45298;54.918;73.504;2022-11-25T15:04:18;32.28;;;9.02;;
59486;SDS011;45298;54.918;73.504;2022-11-25T15:06:51;34.95;;;10.40;;
59486;SDS011;45298;54.918;73.504;2022-11-25T15:09:24;44.65;;;11.48;;
59486;SDS011;45298;54.918;73.504;2022-11-25T15:11:56;27.38;;;9.77;;
59486;SDS011;45298;54.918;73.504;2022-11-25T15:14:26;18.58;;;7.70;;
59486;SDS011;45298;54.918;73.504;2022-11-25T15:16:57;23.80;;;8.02;;
59486;SDS011;45298;54.918;73.504;2022-11-25T15:19:30;23.05;;;8.23;;
59486;SDS011;45298;54.918;73.504;2022-11-25T15:22:02;45.53;;;15.15;;
59486;SDS011;45298;54.918;73.504;2022-11-25T15:24:50;24.85;;;8.93;;
59486;SDS011;45298;54.918;73.504;2022-11-25T15:29:54;15.80;;;5.65;;
59486;SDS011;45298;54.918;73.504;2022-11-25T15:32:30;19.33;;;5.65;;
59486;SDS011;45298;54.918;73.504;2022-11-25T15:35:04;25.35;;;9.98;;
59486;SDS011;45298;54.918;73.504;2022-11-25T15:37:46;22.60;;;9.35;;
59486;SDS011;45298;54.918;73.504;2022-11-25T15:43:21;22.15;;;9.15;;
59486;SDS011;45298;54.918;73.504;2022-11-25T15:45:53;21.17;;;7.18;;
59486;SDS011;45298;54.918;73.504;2022-11-25T15:48:37;11.27;;;3.72;;
59486;SDS011;45298;54.918;73.504;2022-11-25T15:56:44;12.05;;;3.60;;
59486;SDS011;45298;54.918;73.504;2022-11-25T15:59:38;7.40;;;3.20;;
59486;SDS011;45298;54.918;73.504;2022-11-25T16:02:35;8.82;;;3.60;;
59486;SDS011;45298;54.918;73.504;2022-11-25T16:13:16;24.25;;;7.43;;
59486;SDS011;45298;54.918;73.504;2022-11-25T16:19:16;5.95;;;2.85;;
59486;SDS011;45298;54.918;73.504;2022-11-25T16:21:39;8.20;;;3.25;;
59486;SDS011;45298;54.918;73.504;2022-11-25T16:24:20;18.10;;;5.00;;
59486;SDS011;45298;54.918;73.504;2022-11-25T16:27:15;14.98;;;4.78;;
59486;SDS011;45298;54.918;73.504;2022-11-25T16:29:50;16.13;;;5.05;;
59486;SDS011;45298;54.918;73.504;2022-11-25T16:32:25;11.32;;;3.50;;
59486;SDS011;45298;54.918;73.504;2022-11-25T16:34:58;28.75;;;6.97;;
59486;SDS011;45298;54.918;73.504;2022-11-25T16:37:39;11.30;;;4.17;;
59486;SDS011;45298;54.918;73.504;2022-11-25T16:40:15;17.20;;;5.35;;
59486;SDS011;45298;54.918;73.504;2022-11-25T16:42:45;23.00;;;5.25;;
59486;SDS011;45298;54.918;73.504;2022-11-25T16:45:20;13.82;;;5.60;;
59486;SDS011;45298;54.918;73.504;2022-11-25T16:47:51;13.88;;;5.15;;
59486;SDS011;45298;54.918;73.504;2022-11-25T16:50:21;14.52;;;5.00;;
59486;SDS011;45298;54.918;73.504;2022-11-25T16:52:50;20.60;;;7.05;;
59486;SDS011;45298;54.918;73.504;2022-11-25T16:55:19;11.38;;;3.85;;
59486;SDS011;45298;54.918;73.504;2022-11-25T16:57:48;15.55;;;6.28;;
59486;SDS011;45298;54.918;73.504;2022-11-25T17:00:18;9.25;;;4.07;;
59486;SDS011;45298;54.918;73.504;2022-11-25T17:02:47;10.70;;;4.43;;
59486;SDS011;45298;54.918;73.504;2022-11-25T17:05:17;12.60;;;4.97;;
59486;SDS011;45298;54.918;73.504;2022-11-25T17:07:48;11.20;;;4.32;;
59486;SDS011;45298;54.918;73.504;2022-11-25T17:10:18;17.92;;;6.03;;
59486;SDS011;45298;54.918;73.504;2022-11-25T17:12:47;20.42;;;6.53;;
59486;SDS011;45298;54.918;73.504;2022-11-25T17:15:23;27.15;;;6.75;;
59486;SDS011;45298;54.918;73.504;2022-11-25T17:18:00;7.93;;;3.22;;
59486;SDS011;45298;54.918;73.504;2022-11-25T17:20:33;19.40;;;6.88;;
59486;SDS011;45298;54.918;73.504;2022-11-25T17:23:02;12.18;;;4.07;;
59486;SDS011;45298;54.918;73.504;2022-11-25T17:25:38;26.27;;;6.80;;
59486;SDS011;45298;54.918;73.504;2022-11-25T17:28:11;12.80;;;4.20;;
59486;SDS011;45298;54.918;73.504;2022-11-25T17:30:43;13.02;;;4.05;;
59486;SDS011;45298;54.918;73.504;2022-11-25T17:33:16;11.02;;;3.95;;
59486;SDS011;45298;54.918;73.504;2022-11-25T17:35:47;13.20;;;4.60;;
59486;SDS011;45298;54.918;73.504;2022-11-25T17:38:19;10.75;;;4.13;;
59486;SDS011;45298;54.918;73.504;2022-11-25T17:40:48;21.05;;;5.03;;